Time;durP1;ratioP1;P1;durP2;ratioP2;P2;SDS_P1;SDS_P2;PMS_P1;PMS_P2;Temp;Humidity;BMP_temperature;BMP_pressure;BME280_temperature;BME280_humidity;BME280_pressure;Samples;Min_cycle;Max_cycle;Signal;HPM_P1;HPM_P2
2024/01/10 00:00:00;;;;;;;;;49.25;35.00;;;;;-9.20;76.82;102297.80;112768;241;40213;-50
2024/01/10 00:02:34;;;;;;;;;51.00;32.00;;;;;-9.16;76.88;102294.42;112748;241;39296;-55
2024/01/10 00:05:12;;;;;;;;;44.00;30.25;;;;;-9.12;77.02;102288.26;112790;241;39938;-50
2024/01/10 00:07:52;;;;;;;;;44.50;33.00;;;;;-9.10;77.15;102282.83;112814;241;39455;-49
2024/01/10 00:10:26;;;;;;;;;39.50;28.75;;;;;-9.11;77.09;102285.99;112813;241;40138;-54
2024/01/10 00:13:05;;;;;;;;;50.00;35.67;;;;;-9.20;77.02;102289.23;112778;241;39988;-54
2024/01/10 00:15:41;;;;;;;;;43.75;31.25;;;;;-9.25;77.00;102289.64;112821;241;39818;-55
2024/01/10 00:18:18;;;;;;;;;47.00;33.25;;;;;-9.26;77.09;102286.88;112781;241;41345;-55
2024/01/10 00:20:53;;;;;;;;;48.50;33.50;;;;;-9.23;77.15;102286.66;112760;241;42249;-50
2024/01/10 00:23:32;;;;;;;;;45.67;33.00;;;;;-9.24;77.14;102285.80;112795;241;40878;-50
2024/01/10 00:26:10;;;;;;;;;44.00;30.50;;;;;-9.29;77.07;102290.56;112826;241;38916;-49
2024/01/10 00:28:48;;;;;;;;;52.00;37.00;;;;;-9.32;77.17;102288.88;112827;241;39463;-50
2024/01/10 00:31:24;;;;;;;;;51.75;34.75;;;;;-9.33;77.05;102294.64;112829;241;40769;-54
2024/01/10 00:34:02;;;;;;;;;46.00;33.00;;;;;-9.35;77.05;102296.23;112832;241;40841;-54
2024/01/10 00:36:41;;;;;;;;;51.00;36.67;;;;;-9.38;77.16;102295.92;112811;241;39854;-50
2024/01/10 00:39:19;;;;;;;;;47.33;33.67;;;;;-9.40;77.11;102293.15;112841;241;39176;-50
2024/01/10 00:41:59;;;;;;;;;46.50;33.25;;;;;-9.38;77.22;102288.06;112857;241;39410;-51
2024/01/10 00:44:36;;;;;;;;;52.25;34.75;;;;;-9.36;77.20;102287.52;112807;241;39964;-51
2024/01/10 00:47:14;;;;;;;;;46.75;34.75;;;;;-9.39;77.30;102290.88;112810;241;40863;-55
2024/01/10 00:49:49;;;;;;;;;50.75;35.25;;;;;-9.39;77.30;102293.14;112819;241;40903;-55
2024/01/10 00:52:25;;;;;;;;;48.00;32.25;;;;;-9.38;77.21;102299.57;112771;241;39977;-51
2024/01/10 00:55:06;;;;;;;;;46.25;33.50;;;;;-9.41;77.22;102299.26;112805;241;41218;-51
2024/01/10 00:57:43;;;;;;;;;43.50;32.00;;;;;-9.47;77.20;102289.21;112761;241;39703;-56
2024/01/10 01:00:23;;;;;;;;;44.75;31.50;;;;;-9.48;77.23;102292.36;112790;241;40334;-55
2024/01/10 01:03:00;;;;;;;;;47.50;34.25;;;;;-9.53;77.35;102292.41;112798;241;39656;-55
2024/01/10 01:05:41;;;;;;;;;44.00;32.50;;;;;-9.50;77.33;102289.07;112820;241;39459;-55
2024/01/10 01:08:17;;;;;;;;;46.00;32.00;;;;;-9.52;77.27;102286.31;112829;241;39862;-55
2024/01/10 01:10:56;;;;;;;;;49.33;33.00;;;;;-9.51;77.31;102281.60;112843;241;39950;-53
2024/01/10 01:13:34;;;;;;;;;44.50;31.50;;;;;-9.47;77.34;102278.23;112814;241;39119;-54
2024/01/10 01:16:13;;;;;;;;;47.67;34.00;;;;;-9.47;77.38;102281.73;112825;241;40165;-51
2024/01/10 01:18:52;;;;;;;;;50.50;35.25;;;;;-9.45;77.39;102271.23;112817;241;39653;-51
2024/01/10 01:21:28;;;;;;;;;51.33;35.33;;;;;-9.37;77.65;102267.46;112846;241;39198;-49
2024/01/10 01:24:08;;;;;;;;;50.25;33.75;;;;;-9.33;77.67;102263.23;112819;241;40077;-50
2024/01/10 01:26:43;;;;;;;;;44.00;30.50;;;;;-9.29;77.74;102257.26;112856;241;40207;-55
2024/01/10 01:29:21;;;;;;;;;41.75;29.50;;;;;-9.29;77.66;102257.61;112846;241;39736;-56
2024/01/10 01:31:59;;;;;;;;;37.25;27.75;;;;;-9.28;77.69;102254.11;112781;241;39223;-50
2024/01/10 01:34:35;;;;;;;;;44.50;31.75;;;;;-9.28;77.64;102250.80;112818;241;40685;-50
2024/01/10 01:37:13;;;;;;;;;47.25;33.75;;;;;-9.32;77.73;102244.23;112801;241;39347;-50
2024/01/10 01:39:51;;;;;;;;;45.33;32.00;;;;;-9.30;77.70;102239.48;112803;241;39853;-51
2024/01/10 01:42:29;;;;;;;;;44.00;34.00;;;;;-9.33;77.83;102240.05;112813;241;39408;-55
2024/01/10 01:45:08;;;;;;;;;46.00;31.67;;;;;-9.26;78.00;102238.91;112838;241;39684;-52
2024/01/10 01:47:45;;;;;;;;;49.25;34.00;;;;;-9.25;78.00;102237.33;112809;241;39867;-54
2024/01/10 01:50:24;;;;;;;;;48.00;32.00;;;;;-9.25;77.97;102231.21;112812;241;39260;-51
2024/01/10 01:52:59;;;;;;;;;45.50;32.50;;;;;-9.24;78.03;102232.42;112779;241;39811;-51
2024/01/10 01:55:38;;;;;;;;;45.50;34.50;;;;;-9.28;77.99;102239.64;112816;241;39678;-56
2024/01/10 01:58:14;;;;;;;;;37.50;28.00;;;;;-9.31;77.98;102234.62;112823;241;40785;-55
2024/01/10 02:00:53;;;;;;;;;46.00;33.00;;;;;-9.32;77.98;102234.64;112811;241;40338;-53
2024/01/10 02:03:32;;;;;;;;;47.75;33.00;;;;;-9.31;77.88;102238.27;112840;241;40128;-53
2024/01/10 02:06:07;;;;;;;;;47.50;32.25;;;;;-9.30;78.00;102234.77;112818;241;40613;-54
2024/01/10 02:08:44;;;;;;;;;42.50;31.75;;;;;-9.31;77.92;102239.85;112842;241;40617;-55
2024/01/10 02:11:21;;;;;;;;;43.25;31.00;;;;;-9.31;78.04;102237.92;112857;241;40388;-50
2024/01/10 02:14:00;;;;;;;;;49.75;34.00;;;;;-9.31;77.96;102238.64;112853;241;40403;-50
2024/01/10 02:16:36;;;;;;;;;42.50;30.50;;;;;-9.33;77.97;102243.89;112876;241;40543;-55
2024/01/10 02:19:26;;;;;;;;;42.75;31.50;;;;;-9.32;77.99;102248.92;112850;241;40243;-54
2024/01/10 02:22:04;;;;;;;;;51.33;33.33;;;;;-9.33;78.05;102250.67;112853;241;40619;-55
2024/01/10 02:24:43;;;;;;;;;50.50;33.75;;;;;-9.35;78.03;102245.84;112849;241;38941;-54
2024/01/10 02:27:27;;;;;;;;;48.25;34.00;;;;;-9.34;78.14;102247.74;112847;241;41054;-50
2024/01/10 02:30:03;;;;;;;;;48.25;31.50;;;;;-9.36;78.16;102246.18;112760;241;39467;-52
2024/01/10 02:32:40;;;;;;;;;47.75;32.00;;;;;-9.37;78.20;102239.76;112777;241;39160;-50
2024/01/10 02:35:17;;;;;;;;;50.00;33.00;;;;;-9.36;78.10;102241.65;112805;241;39733;-54
2024/01/10 02:37:54;;;;;;;;;49.50;34.50;;;;;-9.36;78.16;102233.98;112823;241;40323;-55
2024/01/10 02:40:30;;;;;;;;;47.25;31.50;;;;;-9.34;78.26;102231.00;112804;241;40344;-51
2024/01/10 02:43:09;;;;;;;;;48.00;32.75;;;;;-9.29;78.27;102229.02;112820;241;40244;-51
2024/01/10 02:45:46;;;;;;;;;48.00;33.00;;;;;-9.29;78.29;102225.00;112823;241;40332;-50
2024/01/10 02:48:20;;;;;;;;;41.67;31.33;;;;;-9.28;78.38;102223.57;112829;241;40267;-50
2024/01/10 02:50:59;;;;;;;;;54.25;35.00;;;;;-9.23;78.46;102211.65;112864;241;39867;-51
2024/01/10 02:53:39;;;;;;;;;38.00;28.00;;;;;-9.23;78.38;102210.95;112841;241;39655;-52
2024/01/10 02:56:16;;;;;;;;;48.25;32.50;;;;;-9.22;78.33;102204.48;112856;241;39358;-54
2024/01/10 02:58:56;;;;;;;;;46.00;35.00;;;;;-9.24;78.39;102200.86;112881;241;40437;-54
2024/01/10 03:01:34;;;;;;;;;38.25;26.50;;;;;-9.25;78.36;102193.19;112902;241;39059;-50
2024/01/10 03:04:10;;;;;;;;;42.33;28.33;;;;;-9.29;78.34;102194.45;113212;239;39960;-49
2024/01/10 03:06:51;;;;;;;;;44.25;28.50;;;;;-9.34;78.35;102200.47;113200;239;39090;-52
2024/01/10 03:09:29;;;;;;;;;43.75;34.25;;;;;-9.35;78.35;102193.33;113165;239;39853;-50
2024/01/10 03:12:03;;;;;;;;;47.00;30.00;;;;;-9.35;78.44;102192.80;113172;239;39765;-50
2024/01/10 03:14:39;;;;;;;;;55.50;35.50;;;;;-9.33;78.44;102197.48;113118;238;38496;-50
2024/01/10 03:17:16;;;;;;;;;50.50;33.50;;;;;-9.33;78.30;102192.95;113100;239;39623;-51
2024/01/10 03:19:58;;;;;;;;;46.33;33.00;;;;;-9.37;78.37;102184.80;113097;239;39928;-51
2024/01/10 03:22:38;;;;;;;;;40.25;27.50;;;;;-9.34;78.43;102181.27;113127;239;39383;-51
2024/01/10 03:25:18;;;;;;;;;41.00;29.75;;;;;-9.35;78.47;102175.02;113172;239;40488;-54
2024/01/10 03:27:58;;;;;;;;;39.25;28.25;;;;;-9.31;78.44;102175.48;113150;239;41000;-55
2024/01/10 03:30:43;;;;;;;;;47.00;30.00;;;;;-9.32;78.47;102177.41;112955;239;40762;-55
2024/01/10 03:33:18;;;;;;;;;32.25;24.00;;;;;-9.31;78.47;102178.10;112941;239;39376;-56
2024/01/10 03:35:56;;;;;;;;;45.00;32.25;;;;;-9.33;78.54;102176.39;113148;238;39900;-51
2024/01/10 03:38:31;;;;;;;;;44.00;32.00;;;;;-9.36;78.65;102177.98;113146;239;39218;-51
2024/01/10 03:41:16;;;;;;;;;39.25;29.75;;;;;-9.36;78.63;102178.86;113151;239;40724;-49
2024/01/10 03:43:51;;;;;;;;;40.00;29.00;;;;;-9.35;78.60;102181.81;113138;239;40556;-49
2024/01/10 03:46:29;;;;;;;;;44.33;30.33;;;;;-9.35;78.60;102183.91;113174;239;39701;-53
2024/01/10 03:49:07;;;;;;;;;47.00;32.67;;;;;-9.35;78.55;102183.05;113154;239;39668;-54
2024/01/10 03:51:45;;;;;;;;;40.00;28.33;;;;;-9.35;78.55;102179.91;113235;239;40861;-55
2024/01/10 03:54:24;;;;;;;;;40.75;28.50;;;;;-9.31;78.57;102175.48;113113;238;40259;-55
2024/01/10 03:56:59;;;;;;;;;44.25;32.25;;;;;-9.32;78.66;102172.17;113163;239;39486;-55
2024/01/10 03:59:34;;;;;;;;;41.00;30.00;;;;;-9.32;78.62;102172.36;113178;239;40369;-55
2024/01/10 04:02:11;;;;;;;;;44.50;29.50;;;;;-9.34;78.61;102166.80;113161;239;39576;-50
2024/01/10 04:04:48;;;;;;;;;42.50;29.50;;;;;-9.30;78.66;102160.30;113083;239;39026;-51
2024/01/10 04:07:27;;;;;;;;;45.25;32.00;;;;;-9.27;78.70;102151.54;113160;238;39330;-56
2024/01/10 04:10:07;;;;;;;;;44.33;30.33;;;;;-9.30;78.70;102146.86;113150;238;39378;-53
2024/01/10 04:12:47;;;;;;;;;47.00;34.50;;;;;-9.28;78.65;102147.52;113120;239;38840;-52
2024/01/10 04:15:25;;;;;;;;;51.00;35.00;;;;;-9.32;78.64;102142.35;113095;238;38986;-51
2024/01/10 04:18:07;;;;;;;;;50.33;32.67;;;;;-9.30;78.72;102146.34;113124;239;39158;-51
2024/01/10 04:20:43;;;;;;;;;47.67;34.67;;;;;-9.33;78.74;102148.30;113136;239;38960;-49
2024/01/10 04:23:20;;;;;;;;;45.25;32.50;;;;;-9.32;78.72;102140.63;113121;238;40271;-49
2024/01/10 04:26:00;;;;;;;;;50.33;35.00;;;;;-9.33;78.80;102135.59;113147;239;39428;-50
2024/01/10 04:28:35;;;;;;;;;42.00;29.50;;;;;-9.32;78.77;102135.91;113146;238;40531;-51
2024/01/10 04:31:23;;;;;;;;;51.75;35.75;;;;;-9.35;78.85;102132.29;113176;239;39117;-51
2024/01/10 04:34:04;;;;;;;;;43.00;32.00;;;;;-9.33;78.83;102129.45;113159;238;39781;-51
2024/01/10 04:36:42;;;;;;;;;38.50;28.00;;;;;-9.30;78.89;102122.98;113170;238;39371;-50
2024/01/10 04:39:19;;;;;;;;;42.00;31.00;;;;;-9.31;78.83;102125.08;113164;239;39124;-50
2024/01/10 04:41:56;;;;;;;;;43.50;30.00;;;;;-9.29;78.86;102129.05;113171;239;38300;-51
2024/01/10 04:44:34;;;;;;;;;42.75;30.00;;;;;-9.31;78.77;102135.90;113031;239;39425;-51
2024/01/10 04:47:11;;;;;;;;;54.00;38.00;;;;;-9.31;78.88;102136.95;113178;239;40804;-52
2024/01/10 04:49:47;;;;;;;;;47.00;31.00;;;;;-9.31;78.91;102139.73;113123;239;42982;-51
2024/01/10 04:52:26;;;;;;;;;40.75;30.50;;;;;-9.32;78.95;102144.11;113161;239;40036;-51
2024/01/10 04:55:05;;;;;;;;;40.67;29.00;;;;;-9.35;78.99;102147.45;113086;239;39774;-53
2024/01/10 04:57:40;;;;;;;;;46.25;32.50;;;;;-9.34;79.09;102152.15;113135;239;39092;-50
2024/01/10 05:00:16;;;;;;;;;53.25;35.25;;;;;-9.35;79.02;102150.77;113149;239;39618;-50
2024/01/10 05:02:54;;;;;;;;;46.25;31.25;;;;;-9.36;79.14;102150.95;113105;240;40264;-51
2024/01/10 05:05:30;;;;;;;;;50.00;35.00;;;;;-9.39;79.16;102153.10;113114;239;40234;-54
2024/01/10 05:08:08;;;;;;;;;44.50;32.00;;;;;-9.39;79.14;102157.29;113136;239;39394;-54
2024/01/10 05:10:46;;;;;;;;;45.00;31.75;;;;;-9.39;79.06;102161.11;113160;239;39911;-49
2024/01/10 05:13:26;;;;;;;;;41.75;30.75;;;;;-9.38;79.05;102168.77;112415;240;470434;-49
2024/01/10 05:16:07;;;;;;;;;47.25;34.00;;;;;-9.39;79.17;102167.39;113149;239;39568;-49
2024/01/10 05:18:41;;;;;;;;;43.50;31.50;;;;;-9.40;79.18;102165.67;113139;239;40229;-49
2024/01/10 05:21:16;;;;;;;;;51.50;38.00;;;;;-9.37;79.23;102158.82;113152;239;41351;-49
2024/01/10 05:23:52;;;;;;;;;51.75;36.50;;;;;-9.29;79.26;102153.48;113220;240;39581;-49
2024/01/10 05:26:31;;;;;;;;;52.00;35.25;;;;;-9.24;79.23;102150.96;113205;239;39848;-55
2024/01/10 05:29:08;;;;;;;;;46.75;32.50;;;;;-9.27;79.24;102154.66;113183;239;39651;-55
2024/01/10 05:31:46;;;;;;;;;50.75;33.75;;;;;-9.24;79.23;102156.02;113187;239;40560;-54
2024/01/10 05:34:21;;;;;;;;;51.75;36.50;;;;;-9.25;79.30;102152.36;113177;239;39534;-55
2024/01/10 05:36:59;;;;;;;;;51.50;35.50;;;;;-9.25;79.49;102150.80;113151;239;39389;-55
2024/01/10 05:39:36;;;;;;;;;48.00;32.50;;;;;-9.20;79.37;102156.33;113118;239;39765;-54
2024/01/10 05:42:11;;;;;;;;;48.00;33.00;;;;;-9.18;79.35;102158.72;113133;239;39471;-51
2024/01/10 05:44:47;;;;;;;;;48.50;35.50;;;;;-9.16;79.37;102165.49;113099;239;40942;-51
2024/01/10 05:47:21;;;;;;;;;47.50;34.00;;;;;-9.11;79.36;102161.08;113132;239;41338;-51
2024/01/10 05:49:58;;;;;;;;;54.25;37.00;;;;;-9.10;79.45;102155.83;113083;239;40887;-51
2024/01/10 05:52:35;;;;;;;;;48.00;33.50;;;;;-9.07;79.45;102152.80;112831;239;39651;-51
2024/01/10 05:55:11;;;;;;;;;47.00;32.67;;;;;-9.06;79.51;102152.27;113090;240;39572;-54
2024/01/10 05:57:45;;;;;;;;;55.50;36.00;;;;;-9.01;79.51;102151.84;113084;239;39312;-55
2024/01/10 06:00:20;;;;;;;;;50.67;34.33;;;;;-8.97;79.55;102146.38;113147;239;39277;-51
2024/01/10 06:02:58;;;;;;;;;53.00;36.00;;;;;-8.86;79.47;102140.27;113123;240;39492;-51
2024/01/10 06:05:35;;;;;;;;;53.50;37.00;;;;;-8.81;79.46;102138.61;112848;240;41542;-49
2024/01/10 06:08:13;;;;;;;;;46.25;33.25;;;;;-8.78;79.56;102133.86;113149;239;41026;-49
2024/01/10 06:10:51;;;;;;;;;41.33;30.67;;;;;-8.78;79.60;102134.38;113181;239;39457;-54
2024/01/10 06:13:26;;;;;;;;;52.50;37.25;;;;;-8.75;79.66;102129.77;113205;239;41396;-54
2024/01/10 06:16:04;;;;;;;;;57.67;37.00;;;;;-8.72;79.60;102128.52;113213;239;40042;-50
2024/01/10 06:18:38;;;;;;;;;48.50;32.25;;;;;-8.69;79.65;102123.74;113194;239;39194;-51
2024/01/10 06:21:14;;;;;;;;;46.33;33.00;;;;;-8.67;79.69;102124.24;113154;239;39885;-50
2024/01/10 06:23:50;;;;;;;;;46.00;31.00;;;;;-8.67;79.73;102121.09;113140;239;39273;-50
2024/01/10 06:26:29;;;;;;;;;40.50;30.00;;;;;-8.68;79.71;102126.01;113189;240;38924;-55
2024/01/10 06:29:05;;;;;;;;;47.25;34.00;;;;;-8.68;79.65;102131.23;113111;239;39830;-55
2024/01/10 06:31:42;;;;;;;;;48.50;35.50;;;;;-8.70;79.67;102136.16;113126;239;40585;-55
2024/01/10 06:34:17;;;;;;;;;52.50;36.75;;;;;-8.75;79.56;102138.50;113064;239;41068;-55
2024/01/10 06:36:54;;;;;;;;;50.00;36.00;;;;;-8.77;79.55;102139.23;113121;239;41616;-53
2024/01/10 06:39:29;;;;;;;;;49.75;37.25;;;;;-8.77;79.44;102146.40;113126;239;39534;-53
2024/01/10 06:42:08;;;;;;;;;59.50;43.00;;;;;-8.81;79.31;102154.33;113131;239;39674;-54
2024/01/10 06:44:43;;;;;;;;;42.75;32.50;;;;;-8.84;79.26;102160.14;113108;239;40776;-55
2024/01/10 06:47:18;;;;;;;;;47.75;34.00;;;;;-8.88;79.34;102162.46;113213;239;39105;-51
2024/01/10 06:49:56;;;;;;;;;56.00;38.00;;;;;-8.90;79.27;102156.92;113108;239;40768;-51
2024/01/10 06:52:31;;;;;;;;;51.25;36.00;;;;;-8.90;79.22;102160.92;113190;239;40018;-51
2024/01/10 06:55:10;;;;;;;;;55.00;39.50;;;;;-8.88;79.31;102162.11;113148;239;40244;-51
2024/01/10 06:57:48;;;;;;;;;58.00;40.25;;;;;-8.89;79.24;102155.14;113192;239;39444;-51
2024/01/10 07:00:23;;;;;;;;;54.00;40.00;;;;;-8.91;79.25;102156.40;113226;239;41286;-55
2024/01/10 07:02:57;;;;;;;;;59.25;40.75;;;;;-8.88;79.19;102153.91;113173;239;39564;-55
2024/01/10 07:05:33;;;;;;;;;54.25;36.50;;;;;-8.89;79.19;102155.84;113198;239;39520;-53
2024/01/10 07:08:08;;;;;;;;;59.25;39.00;;;;;-8.84;79.20;102157.52;113162;239;40448;-54
2024/01/10 07:10:45;;;;;;;;;50.00;35.33;;;;;-8.83;79.20;102156.28;113192;239;39913;-54
2024/01/10 07:13:25;;;;;;;;;53.67;37.00;;;;;-8.89;79.33;102164.23;113141;239;40482;-54
2024/01/10 07:16:06;;;;;;;;;58.50;41.25;;;;;-8.93;79.43;102162.36;113173;239;40098;-53
2024/01/10 07:18:40;;;;;;;;;52.50;36.50;;;;;-8.94;79.56;102158.89;113148;239;39853;-55
2024/01/10 07:21:14;;;;;;;;;54.50;36.75;;;;;-8.92;79.54;102168.28;113180;239;39455;-55
2024/01/10 07:23:53;;;;;;;;;56.25;40.00;;;;;-8.85;79.56;102171.48;113147;239;39085;-55
2024/01/10 07:26:35;;;;;;;;;50.00;37.00;;;;;-8.78;79.54;102168.40;113104;239;39159;-50
2024/01/10 07:29:10;;;;;;;;;55.75;39.50;;;;;-8.69;79.60;102173.16;113196;239;40538;-50
2024/01/10 07:31:44;;;;;;;;;57.00;39.75;;;;;-8.58;79.75;102170.18;113206;239;39737;-50
2024/01/10 07:34:24;;;;;;;;;58.00;41.00;;;;;-8.37;79.76;102160.02;113224;239;39601;-51
2024/01/10 07:37:00;;;;;;;;;64.00;41.00;;;;;-8.11;79.62;102149.57;113183;239;41129;-52
2024/01/10 07:39:37;;;;;;;;;54.50;37.50;;;;;-7.93;79.61;102143.43;113208;239;39396;-51
2024/01/10 07:42:19;;;;;;;;;54.50;40.00;;;;;-7.73;79.60;102143.05;113229;239;40752;-50
2024/01/10 07:44:58;;;;;;;;;64.00;41.00;;;;;-7.48;79.40;102140.41;113206;239;39779;-50
2024/01/10 07:47:34;;;;;;;;;59.25;43.00;;;;;-7.36;79.35;102141.20;113203;239;39401;-57
2024/01/10 07:50:10;;;;;;;;;56.00;38.00;;;;;-7.16;79.31;102143.89;113252;239;40853;-50
2024/01/10 07:52:45;;;;;;;;;62.33;41.00;;;;;-7.10;79.14;102146.38;113176;239;40261;-49
2024/01/10 07:55:20;;;;;;;;;62.00;41.00;;;;;-7.11;79.09;102146.75;113221;239;40057;-54
2024/01/10 07:57:59;;;;;;;;;58.67;39.67;;;;;-6.95;79.02;102149.71;113254;239;39154;-52
2024/01/10 08:00:39;;;;;;;;;56.50;39.75;;;;;-6.85;79.13;102145.78;113200;239;41347;-53
2024/01/10 08:03:16;;;;;;;;;65.00;44.00;;;;;-6.64;78.95;102148.59;113213;239;40550;-54
2024/01/10 08:05:56;;;;;;;;;53.50;37.25;;;;;-6.69;78.85;102149.41;113217;239;39815;-55
2024/01/10 08:08:37;;;;;;;;;48.00;36.25;;;;;-6.75;78.67;102146.23;113217;239;39409;-55
2024/01/10 08:11:21;;;;;;;;;55.00;37.75;;;;;-6.76;78.66;102142.93;112827;239;41629;-55
2024/01/10 08:13:59;;;;;;;;;56.50;41.00;;;;;-6.74;78.51;102144.80;113223;239;39792;-55
2024/01/10 08:16:39;;;;;;;;;54.00;38.50;;;;;-6.73;78.52;102146.36;113242;239;39021;-50
2024/01/10 08:19:14;;;;;;;;;55.00;38.00;;;;;-6.65;78.41;102140.02;113220;239;39978;-50
2024/01/10 08:21:54;;;;;;;;;49.75;35.00;;;;;-6.57;78.38;102140.00;113272;239;40419;-49
2024/01/10 08:24:32;;;;;;;;;57.00;39.75;;;;;-6.53;78.58;102145.51;113255;239;39445;-49
2024/01/10 08:27:06;;;;;;;;;55.25;35.00;;;;;-6.41;78.61;102142.06;113196;239;39509;-50
2024/01/10 08:29:42;;;;;;;;;47.75;34.00;;;;;-6.23;78.58;102145.95;113241;239;40077;-50
2024/01/10 08:32:20;;;;;;;;;47.00;33.33;;;;;-6.09;78.59;102140.48;113227;239;39809;-53
2024/01/10 08:34:59;;;;;;;;;47.00;33.33;;;;;-5.78;78.62;102132.42;113194;239;39633;-54
2024/01/10 08:37:34;;;;;;;;;43.50;32.00;;;;;-5.47;78.59;102131.47;113163;239;40005;-54
2024/01/10 08:40:12;;;;;;;;;49.50;35.50;;;;;-5.26;78.39;102134.36;113129;239;39763;-51
2024/01/10 08:42:46;;;;;;;;;48.00;36.00;;;;;-5.05;78.28;102130.18;113165;239;39793;-52
2024/01/10 08:45:24;;;;;;;;;50.25;36.25;;;;;-4.93;78.03;102124.88;113139;239;39803;-54
2024/01/10 08:48:02;;;;;;;;;55.50;39.50;;;;;-4.64;77.75;102124.98;113132;239;39539;-53
2024/01/10 08:50:39;;;;;;;;;53.00;38.00;;;;;-4.26;76.98;102122.23;113108;240;39745;-54
2024/01/10 08:53:18;;;;;;;;;57.00;41.25;;;;;-4.22;76.78;102123.69;113008;239;38959;-54
2024/01/10 08:55:53;;;;;;;;;54.67;39.33;;;;;-4.41;76.61;102126.14;113176;239;41092;-52
2024/01/10 08:58:29;;;;;;;;;52.75;36.75;;;;;-4.66;76.47;102141.22;113144;239;39765;-52
2024/01/10 09:01:08;;;;;;;;;47.00;35.00;;;;;-4.75;76.45;102146.10;113144;240;39265;-52
2024/01/10 09:03:45;;;;;;;;;40.25;30.00;;;;;-4.61;76.33;102150.89;113111;239;40191;-53
2024/01/10 09:06:22;;;;;;;;;56.75;39.00;;;;;-4.31;76.34;102155.68;113151;240;40522;-55
2024/01/10 09:09:04;;;;;;;;;50.50;35.00;;;;;-3.97;76.55;102163.29;113156;239;40103;-56
2024/01/10 09:11:50;;;;;;;;;50.00;35.00;;;;;-3.84;76.16;102163.34;113216;239;40769;-54
2024/01/10 09:14:29;;;;;;;;;60.33;38.33;;;;;-3.91;75.87;102161.65;113130;239;39918;-51
2024/01/10 09:17:07;;;;;;;;;49.67;33.67;;;;;-4.21;75.75;102154.61;113172;239;39797;-51
2024/01/10 09:19:46;;;;;;;;;49.50;33.25;;;;;-4.25;76.04;102145.95;113203;239;39774;-51
2024/01/10 09:22:21;;;;;;;;;51.00;35.00;;;;;-4.16;76.10;102139.64;113148;239;39168;-50
2024/01/10 09:24:59;;;;;;;;;46.50;31.75;;;;;-3.99;75.87;102136.61;113148;239;40892;-57
2024/01/10 09:27:36;;;;;;;;;46.50;34.00;;;;;-3.84;76.02;102140.65;113112;239;41157;-49
2024/01/10 09:30:13;;;;;;;;;48.50;35.00;;;;;-3.76;75.94;102137.02;113146;239;39708;-54
2024/01/10 09:32:48;;;;;;;;;45.67;32.33;;;;;-3.39;75.76;102135.27;113140;239;40094;-55
2024/01/10 09:35:26;;;;;;;;;47.50;32.00;;;;;-3.02;76.00;102139.59;113172;239;39870;-56
2024/01/10 09:38:01;;;;;;;;;49.75;33.75;;;;;-2.59;75.96;102138.55;113155;239;40275;-55
2024/01/10 09:40:37;;;;;;;;;48.00;33.00;;;;;-1.99;75.65;102130.68;113181;239;39304;-55
2024/01/10 09:43:19;;;;;;;;;53.00;35.00;;;;;-1.58;75.59;102133.42;113142;240;39068;-55
2024/01/10 09:45:58;;;;;;;;;45.00;33.00;;;;;-1.24;75.35;102132.88;113152;239;40712;-51
2024/01/10 09:48:35;;;;;;;;;51.00;35.75;;;;;-0.93;75.19;102129.43;113157;239;41131;-52
2024/01/10 09:51:10;;;;;;;;;56.00;38.00;;;;;-0.72;74.68;102131.08;113238;239;39328;-57
2024/01/10 09:53:50;;;;;;;;;56.00;38.25;;;;;-0.61;73.99;102134.42;113197;239;41112;-55
2024/01/10 09:56:28;;;;;;;;;50.33;34.00;;;;;-0.73;73.78;102139.61;113191;239;40609;-51
2024/01/10 09:59:10;;;;;;;;;43.50;31.00;;;;;-0.76;73.26;102142.78;113124;239;40036;-51
2024/01/10 10:01:47;;;;;;;;;51.75;34.00;;;;;-0.82;73.14;102135.80;113197;240;39953;-52
2024/01/10 10:04:23;;;;;;;;;45.00;33.67;;;;;-0.87;73.03;102134.82;112865;239;40407;-51
2024/01/10 10:07:07;;;;;;;;;42.00;29.00;;;;;-0.72;73.14;102135.17;113179;239;40083;-56
2024/01/10 10:09:47;;;;;;;;;46.00;33.25;;;;;-0.72;72.47;102134.44;113106;239;40105;-56
2024/01/10 10:12:42;;;;;;;;;49.50;33.00;;;;;-0.64;72.41;102123.94;113147;239;40676;-56
2024/01/10 10:15:21;;;;;;;;;41.00;29.00;;;;;-0.64;72.11;102117.22;113159;239;40985;-52
2024/01/10 10:17:57;;;;;;;;;43.00;32.00;;;;;-0.52;72.20;102118.95;113173;240;39732;-51
2024/01/10 10:20:36;;;;;;;;;45.00;33.00;;;;;-0.74;72.30;102119.12;113116;239;39725;-51
2024/01/10 10:23:15;;;;;;;;;52.33;36.00;;;;;-0.57;72.20;102117.23;113134;239;39975;-51
2024/01/10 10:25:54;;;;;;;;;46.00;31.00;;;;;-0.61;71.17;102113.23;113121;239;39670;-55
2024/01/10 10:28:36;;;;;;;;;49.00;34.25;;;;;-0.84;70.91;102112.05;113151;239;39390;-56
2024/01/10 10:31:19;;;;;;;;;47.00;33.00;;;;;-0.95;70.80;102108.52;113148;239;39806;-54
2024/01/10 10:33:57;;;;;;;;;37.00;29.00;;;;;-1.07;71.17;102111.23;113134;239;40362;-53
2024/01/10 10:36:36;;;;;;;;;35.00;27.00;;;;;-1.07;71.18;102114.92;113123;239;41169;-55
2024/01/10 10:39:19;;;;;;;;;38.00;27.25;;;;;-1.35;71.25;102112.35;113117;239;39817;-55
2024/01/10 10:41:54;;;;;;;;;29.00;22.00;;;;;-1.49;71.13;102102.98;113116;239;38994;-54
2024/01/10 10:44:37;;;;;;;;;33.50;23.00;;;;;-1.51;71.12;102103.05;113131;239;40207;-55
2024/01/10 10:47:16;;;;;;;;;30.00;21.50;;;;;-1.66;71.49;102104.48;113126;239;40732;-51
2024/01/10 10:49:56;;;;;;;;;33.00;24.33;;;;;-1.95;71.68;102092.17;113183;239;39573;-51
2024/01/10 10:52:32;;;;;;;;;25.50;21.00;;;;;-2.07;71.56;102088.50;113166;239;41275;-50
2024/01/10 10:55:09;;;;;;;;;37.25;25.75;;;;;-2.27;71.63;102079.49;113189;239;39634;-51
2024/01/10 10:57:49;;;;;;;;;33.00;23.25;;;;;-2.33;71.53;102072.36;113213;239;39647;-51
2024/01/10 11:00:32;;;;;;;;;32.00;22.00;;;;;-2.49;71.70;102070.02;113230;239;38881;-50
2024/01/10 11:03:11;;;;;;;;;27.00;17.00;;;;;-2.74;71.93;102076.24;113155;239;40365;-49
2024/01/10 11:05:51;;;;;;;;;28.00;19.00;;;;;-2.91;72.22;102075.00;113237;239;39371;-53
2024/01/10 11:08:28;;;;;;;;;21.75;15.50;;;;;-3.05;72.39;102075.05;113162;239;40823;-50
2024/01/10 11:11:06;;;;;;;;;23.00;17.00;;;;;-3.20;72.81;102079.52;113224;239;39408;-49
2024/01/10 11:14:19;;;;;;;;;27.00;19.25;;;;;-3.25;72.96;102078.53;113146;239;40569;-50
2024/01/10 11:17:43;;;;;;;;;26.75;18.00;;;;;-3.33;73.08;102072.66;113183;239;41203;-54
2024/01/10 11:20:39;;;;;;;;;19.00;14.00;;;;;-3.30;73.21;102070.77;113222;239;40966;-51
2024/01/10 11:23:44;;;;;;;;;24.00;17.00;;;;;-3.36;73.40;102066.27;113172;239;41099;-50
2024/01/10 11:26:23;;;;;;;;;22.00;17.00;;;;;-3.38;73.61;102066.00;112850;239;40786;-50
2024/01/10 11:29:05;;;;;;;;;23.75;20.00;;;;;-3.30;73.65;102063.36;113167;239;40102;-51
2024/01/10 11:31:55;;;;;;;;;21.50;14.50;;;;;-3.35;73.65;102061.29;113191;239;39043;-54
2024/01/10 11:34:31;;;;;;;;;27.75;17.25;;;;;-3.36;73.73;102058.16;113239;239;40161;-54
2024/01/10 11:37:20;;;;;;;;;25.00;19.00;;;;;-3.37;73.83;102053.10;113210;239;39380;-54
2024/01/10 11:39:59;;;;;;;;;24.00;18.00;;;;;-3.44;73.99;102047.76;113226;239;40205;-54
2024/01/10 11:42:47;;;;;;;;;25.00;19.00;;;;;-3.46;74.03;102041.33;112851;239;39960;-54
2024/01/10 11:45:51;;;;;;;;;25.00;19.00;;;;;-3.53;74.13;102034.89;113165;239;39633;-55
2024/01/10 11:48:32;;;;;;;;;19.00;14.67;;;;;-3.62;74.37;102027.16;113202;239;40106;-57
2024/01/10 11:51:08;;;;;;;;;21.00;14.50;;;;;-3.67;74.48;102027.52;113235;239;40397;-50
2024/01/10 11:53:47;;;;;;;;;22.00;16.00;;;;;-3.77;74.71;102025.11;113225;239;40154;-51
2024/01/10 11:56:21;;;;;;;;;19.67;15.00;;;;;-3.75;74.84;102028.00;113269;239;40386;-50
2024/01/10 11:59:10;;;;;;;;;23.50;18.00;;;;;-3.72;74.87;102027.54;113203;239;39748;-50